Taranto-Grottaglie "Marcello Arlotta" Airport

LIBG · Apulia, Włochy

Historia METAR LIBG · Taranto-Grottaglie "Marcello Arlotta" Airport

Poniżej widzisz METAR-y z ostatnich kilku dni. Wybierz rok, aby przeglądać starsze METAR-y, począwszy od roku 2007.

18 lipca 2024

Czas Kod Pogoda Temp. Widoczność Sufit Wiatr METAR/SPECI
06:50
V
28 °C 10 km+ - 340° 340° 8 kt METAR LIBR 180450Z 34008KT CAVOK 28/24 Q1013
06:20
V
28 °C 10 km+ - 340° 340° 8 kt METAR LIBR 180420Z 34008KT CAVOK 28/23 Q1013
05:50
V
28 °C 10 km+ - 330° 330° 8 kt METAR LIBR 180350Z 33008KT CAVOK 28/23 Q1013
05:20
V
25 °C 10 km+ - 310° 310° 6 kt METAR LIBR 180320Z 31006KT CAVOK 25/19 Q1013
04:50
V
26 °C 10 km+ - 300° 300° 7 kt METAR LIBR 180250Z 30007KT CAVOK 26/19 Q1013
04:20
V
26 °C 10 km+ - 300° 300° 7 kt METAR LIBR 180220Z 30007KT CAVOK 26/19 Q1013
03:50
V
25 °C 10 km+ - 300° 300° 6 kt METAR LIBR 180150Z 30006KT CAVOK 25/19 Q1012
03:20
V
26 °C 10 km+ - 300° 300° 7 kt METAR LIBR 180120Z 30007KT CAVOK 26/19 Q1012
02:50
V
26 °C 10 km+ - 300° 300° 6 kt METAR LIBR 180050Z 30006KT CAVOK 26/20 Q1013
02:20
V
27 °C 10 km+ - 300° 300° 7 kt METAR LIBR 180020Z 30007KT CAVOK 27/19 Q1013
01:50
V
26 °C 10 km+ - 310° 310° 6 kt METAR LIBR 172350Z 31006KT CAVOK 26/19 Q1013
01:20
V
26 °C 10 km+ - 300° 300° 6 kt METAR LIBR 172320Z 30006KT CAVOK 26/20 Q1013
00:50
V
27 °C 10 km+ - 300° 300° 7 kt METAR LIBR 172250Z 30007KT CAVOK 27/22 Q1013
00:20
V
27 °C 10 km+ - 330° 330° 5 kt METAR LIBR 172220Z 33005KT CAVOK 27/22 Q1013

17 lipca 2024

Czas Kod Pogoda Temp. Widoczność Sufit Wiatr METAR/SPECI
23:50
V
26 °C 10 km+ - 310° 310° 4 kt METAR LIBR 172150Z 31004KT CAVOK 26/20 Q1013
22:50
V
27 °C 10 km+ - 260° 260° 3 kt METAR LIBR 172050Z 26003KT 200V300 CAVOK 27/22 Q1013
22:20
V
28 °C 10 km+ - 310° 310° 5 kt METAR LIBR 172020Z 31005KT CAVOK 28/23 Q1013
21:50
V
28 °C 10 km+ - 320° 320° 5 kt METAR LIBR 171950Z 32005KT CAVOK 28/24 Q1013
21:20
V
28 °C 10 km+ - 320° 320° 6 kt METAR LIBR 171920Z 32006KT CAVOK 28/25 Q1013
20:50
V
28 °C 10 km+ - 320° 320° 8 kt METAR LIBR 171850Z 32008KT CAVOK 28/25 Q1012
20:20
V
29 °C 10 km+ - 330° 330° 8 kt METAR LIBR 171820Z 33008KT CAVOK 29/25 Q1012
19:50
V
29 °C 10 km+ - 340° 340° 7 kt METAR LIBR 171750Z 34007KT CAVOK 29/25 Q1012
19:20
V
30 °C 10 km+ - 340° 340° 8 kt METAR LIBR 171720Z 34008KT CAVOK 30/25 Q1012
18:50
V
30 °C 10 km+ - 350° 350° 10 kt METAR LIBR 171650Z 35010KT CAVOK 30/25 Q1012
18:20
V
30 °C 10 km+ - 360° 360° 10 kt METAR LIBR 171620Z 36010KT CAVOK 30/25 Q1012
17:50
V
30 °C 10 km+ - 340° 340° 11 kt METAR LIBR 171550Z 34011KT CAVOK 30/25 Q1012
17:20
V
30 °C 10 km+ - 340° 340° 12 kt METAR LIBR 171520Z 34012KT 310V010 CAVOK 30/25 Q1012
16:50
V
31 °C 10 km+ - 340° 340° 13 kt METAR LIBR 171450Z 34013KT CAVOK 31/25 Q1012
16:20
V
31 °C 10 km+ - 340° 340° 14 kt METAR LIBR 171420Z 34014KT CAVOK 31/24 Q1012
15:50
V
32 °C 10 km+ - 340° 340° 14 kt METAR LIBR 171350Z 34014KT CAVOK 32/24 Q1012
15:20
V
32 °C 10 km+ - 330° 330° 14 kt METAR LIBR 171320Z 33014KT CAVOK 32/23 Q1012
14:50
V
32 °C 10 km+ - 330° 330° 12 kt METAR LIBR 171250Z 33012KT CAVOK 32/22 Q1013
14:20
V
32 °C 10 km+ - 340° 340° 13 kt METAR LIBR 171220Z 34013KT CAVOK 32/22 Q1013
13:50
V
32 °C 10 km+ - 340° 340° 13 kt METAR LIBR 171150Z 34013KT CAVOK 32/21 Q1013
13:20
V
32 °C 10 km+ - 340° 340° 12 kt METAR LIBR 171120Z 34012KT 310V010 CAVOK 32/21 Q1013
12:50
V
33 °C 10 km+ - 330° 330° 15 kt METAR LIBR 171050Z 33015KT CAVOK 33/19 Q1013
12:20
V
32 °C 10 km+ - 320° 320° 14 kt METAR LIBR 171020Z 32014KT CAVOK 32/20 Q1013
11:50
V
32 °C 10 km+ - 330° 330° 16 kt METAR LIBR 170950Z 33016KT CAVOK 32/20 Q1013
11:20
V
32 °C 10 km+ - 320° 320° 15 kt METAR LIBR 170920Z 32015KT CAVOK 32/22 Q1013
10:50
V
31 °C 10 km+ - 320° 320° 15 kt METAR LIBR 170850Z 32015KT CAVOK 31/22 Q1013
10:20
V
31 °C 10 km+ - 330° 330° 12 kt METAR LIBR 170820Z 33012KT CAVOK 31/22 Q1013
09:50
V
31 °C 10 km+ - 330° 330° 11 kt METAR LIBR 170750Z 33011KT 300V360 CAVOK 31/22 Q1013
09:20
V
31 °C 10 km+ - 330° 330° 11 kt METAR LIBR 170720Z 33011KT 300V360 CAVOK 31/21 Q1012
08:50
V
30 °C 10 km+ - 320° 320° 12 kt METAR LIBR 170650Z 32012KT CAVOK 30/21 Q1012
08:20
V
30 °C 10 km+ - 330° 330° 10 kt METAR LIBR 170620Z 33010KT CAVOK 30/22 Q1012
07:50
V
30 °C 10 km+ - 330° 330° 8 kt METAR LIBR 170550Z 33008KT CAVOK 30/22 Q1012
07:20
V
29 °C 10 km+ - 340° 340° 4 kt METAR LIBR 170520Z 34004KT CAVOK 29/21 Q1012
06:50
V
27 °C 10 km+ - 310° 310° 5 kt METAR LIBR 170450Z 31005KT CAVOK 27/15 Q1011
06:20
V
26 °C 10 km+ - 300° 300° 4 kt METAR LIBR 170420Z 30004KT CAVOK 26/14 Q1011
05:50
V
26 °C 10 km+ - 290° 290° 4 kt METAR LIBR 170350Z 29004KT CAVOK 26/14 Q1011
05:20
V
25 °C 10 km+ - 300° 300° 6 kt METAR LIBR 170320Z 30006KT CAVOK 25/14 Q1011
04:50
V
25 °C 10 km+ - 290° 290° 2 kt METAR LIBR 170250Z 29002KT CAVOK 25/14 Q1010
04:20
V
25 °C 10 km+ - 270° 270° 2 kt METAR LIBR 170220Z 27002KT CAVOK 25/14 Q1011
03:50
V
26 °C 10 km+ - 290° 290° 5 kt METAR LIBR 170150Z 29005KT CAVOK 26/13 Q1010
03:20
V
26 °C 10 km+ - 300° 300° 6 kt METAR LIBR 170120Z 30006KT CAVOK 26/13 Q1010
02:50
V
27 °C 10 km+ - 290° 290° 6 kt METAR LIBR 170050Z 29006KT CAVOK 27/13 Q1011
02:20
V
28 °C 10 km+ - 290° 290° 8 kt METAR LIBR 170020Z 29008KT CAVOK 28/15 Q1011
01:50
V
28 °C 10 km+ - 290° 290° 9 kt METAR LIBR 162350Z 29009KT CAVOK 28/15 Q1011
01:20
V
27 °C 10 km+ - 290° 290° 6 kt METAR LIBR 162320Z 29006KT CAVOK 27/18 Q1011
00:50
V
27 °C 10 km+ - 300° 300° 5 kt METAR LIBR 162250Z 30005KT CAVOK 27/22 Q1011
00:20
V
27 °C 10 km+ - 310° 310° 5 kt METAR LIBR 162220Z 31005KT CAVOK 27/22 Q1011

16 lipca 2024

Czas Kod Pogoda Temp. Widoczność Sufit Wiatr METAR/SPECI
23:50
V
28 °C 10 km+ - 340° 340° 5 kt METAR LIBR 162150Z 34005KT CAVOK 28/23 Q1011
23:20
V
28 °C 10 km+ - 320° 320° 4 kt METAR LIBR 162120Z 32004KT CAVOK 28/22 Q1011
22:50
V
29 °C 10 km+ - 320° 320° 6 kt METAR LIBR 162050Z 32006KT CAVOK 29/22 Q1011
22:20
V
29 °C 10 km+ - 330° 330° 6 kt METAR LIBR 162020Z 33006KT CAVOK 29/22 Q1011
21:50
V
29 °C 10 km+ - 330° 330° 6 kt METAR LIBR 161950Z 33006KT 300V360 CAVOK 29/21 Q1011
21:20
V
29 °C 10 km+ - 320° 320° 7 kt METAR LIBR 161920Z 32007KT CAVOK 29/20 Q1011
20:50
V
30 °C 10 km+ - 310° 310° 8 kt METAR LIBR 161850Z 31008KT CAVOK 30/21 Q1010
20:20
V
30 °C 10 km+ - 310° 310° 10 kt METAR LIBR 161820Z 31010KT CAVOK 30/22 Q1010
19:50
V
30 °C 10 km+ - 320° 320° 10 kt METAR LIBR 161750Z 32010KT CAVOK 30/22 Q1010
19:20
V
30 °C 10 km+ - 330° 330° 9 kt METAR LIBR 161720Z 33009KT CAVOK 30/22 Q1010
18:50
V
31 °C 10 km+ - 330° 330° 9 kt METAR LIBR 161650Z 33009KT CAVOK 31/22 Q1010
18:20
V
31 °C 10 km+ - 330° 330° 9 kt METAR LIBR 161620Z 33009KT CAVOK 31/22 Q1010
17:50
V
31 °C 10 km+ - 330° 330° 10 kt METAR LIBR 161550Z 33010KT CAVOK 31/21 Q1010
17:20
V
31 °C 10 km+ - 340° 340° 10 kt METAR LIBR 161520Z 34010KT 310V010 CAVOK 31/22 Q1010
16:50
V
32 °C 10 km+ - 350° 350° 9 kt METAR LIBR 161450Z 35009KT CAVOK 32/21 Q1010
16:20
V
32 °C 10 km+ - 350° 350° 10 kt METAR LIBR 161420Z 35010KT 310V010 CAVOK 32/20 Q1010
15:50
V
33 °C 10 km+ - 330° 330° 11 kt METAR LIBR 161350Z 33011KT CAVOK 33/20 Q1011
15:20
V
33 °C 10 km+ - 330° 330° 12 kt METAR LIBR 161320Z 33012KT CAVOK 33/20 Q1011
14:50
V
33 °C 10 km+ - 330° 330° 12 kt METAR LIBR 161250Z 33012KT CAVOK 33/18 Q1011
14:20
V
33 °C 10 km+ - 330° 330° 14 kt METAR LIBR 161220Z 33014KT CAVOK 33/15 Q1011
13:50
V
34 °C 10 km+ - 330° 330° 13 kt METAR LIBR 161150Z 33013KT CAVOK 34/17 Q1011
13:20
V
33 °C 10 km+ - 330° 330° 13 kt METAR LIBR 161120Z 33013KT CAVOK 33/19 Q1011
12:50
V
32 °C 10 km+ - 330° 330° 12 kt METAR LIBR 161050Z 33012KT CAVOK 32/21 Q1011
12:20
V
32 °C 10 km+ - 340° 340° 12 kt METAR LIBR 161020Z 34012KT 310V010 CAVOK 32/21 Q1011
11:50
V
32 °C 10 km+ - 320° 320° 14 kt METAR LIBR 160950Z 32014KT CAVOK 32/22 Q1011
11:20
V
32 °C 10 km+ - 330° 330° 12 kt METAR LIBR 160920Z 33012KT CAVOK 32/21 Q1011
10:50
V
31 °C 10 km+ - 330° 330° 15 kt METAR LIBR 160850Z 33015KT CAVOK 31/20 Q1011
10:20
V
31 °C 10 km+ - 320° 320° 14 kt METAR LIBR 160820Z 32014KT CAVOK 31/21 Q1011
09:50
V
31 °C 10 km+ - 320° 320° 15 kt METAR LIBR 160750Z 32015KT CAVOK 31/20 Q1011
09:20
V
31 °C 10 km+ - 320° 320° 14 kt METAR LIBR 160720Z 32014KT CAVOK 31/20 Q1011
08:50
V
30 °C 10 km+ - 320° 320° 14 kt METAR LIBR 160650Z 32014KT CAVOK 30/21 Q1011
08:20
V
29 °C 10 km+ - 330° 330° 12 kt METAR LIBR 160620Z 33012KT CAVOK 29/22 Q1011
07:50
V
29 °C 10 km+ - 330° 330° 11 kt METAR LIBR 160550Z 33011KT CAVOK 29/24 Q1011
07:20
V
29 °C 10 km+ - 330° 330° 10 kt METAR LIBR 160520Z 33010KT CAVOK 29/22 Q1010
06:50
V
29 °C 10 km+ - 330° 330° 9 kt METAR LIBR 160450Z 33009KT CAVOK 29/22 Q1010
06:20
V
28 °C 10 km+ - 330° 330° 9 kt METAR LIBR 160420Z 33009KT CAVOK 28/22 Q1010
05:50
V
27 °C 10 km+ - 330° 330° 7 kt METAR LIBR 160350Z 33007KT CAVOK 27/21 Q1010
05:20
V
27 °C 10 km+ - 320° 320° 7 kt METAR LIBR 160320Z 32007KT CAVOK 27/21 Q1010
04:50
V
27 °C 10 km+ - 320° 320° 8 kt METAR LIBR 160250Z 32008KT CAVOK 27/21 Q1010
04:20
V
27 °C 10 km+ - 320° 320° 8 kt METAR LIBR 160220Z 32008KT CAVOK 27/20 Q1010
03:50
V
27 °C 10 km+ - 320° 320° 7 kt METAR LIBR 160150Z 32007KT CAVOK 27/20 Q1010
03:20
V
27 °C 10 km+ - 310° 310° 7 kt METAR LIBR 160120Z 31007KT CAVOK 27/20 Q1010
02:50
V
28 °C 10 km+ - 310° 310° 8 kt METAR LIBR 160050Z 31008KT CAVOK 28/21 Q1010
02:20
V
28 °C 10 km+ - 320° 320° 8 kt METAR LIBR 160020Z 32008KT CAVOK 28/22 Q1010
01:50
V
27 °C 10 km+ - 320° 320° 7 kt METAR LIBR 152350Z 32007KT CAVOK 27/22 Q1010
01:20
V
26 °C 10 km+ - 310° 310° 6 kt METAR LIBR 152320Z 31006KT CAVOK 26/21 Q1010
00:50
V
26 °C 10 km+ - 310° 310° 5 kt METAR LIBR 152250Z 31005KT CAVOK 26/21 Q1010
00:20
V
26 °C 10 km+ - 310° 310° 4 kt METAR LIBR 152220Z 31004KT CAVOK 26/19 Q1010

15 lipca 2024

Czas Kod Pogoda Temp. Widoczność Sufit Wiatr METAR/SPECI
23:50
V
27 °C 10 km+ - 300° 300° 5 kt METAR LIBR 152150Z 30005KT CAVOK 27/19 Q1011
23:20
V
27 °C 10 km+ - 300° 300° 6 kt METAR LIBR 152120Z 30006KT CAVOK 27/20 Q1010
22:50
V
28 °C 10 km+ - 300° 300° 4 kt METAR LIBR 152050Z 30004KT CAVOK 28/23 Q1010
22:20
V
28 °C 10 km+ - 310° 310° 4 kt METAR LIBR 152020Z 31004KT CAVOK 28/23 Q1010
21:50
V
28 °C 10 km+ - 320° 320° 7 kt METAR LIBR 151950Z 32007KT CAVOK 28/24 Q1010
Zgłoś zmianę